createdAt,value
2019-03-28T00:01:51.820Z,101777.33
2019-03-28T00:04:23.076Z,101782.79
2019-03-28T00:06:54.293Z,101780.02
2019-03-28T00:09:25.487Z,101772.59
2019-03-28T00:11:57.107Z,101776.97
2019-03-28T00:14:29.114Z,101768.14
2019-03-28T00:17:00.346Z,101769.85
2019-03-28T00:19:31.531Z,101768.31
2019-03-28T00:22:05.528Z,101769.23
2019-03-28T00:24:57.394Z,101770.52
2019-03-28T00:27:28.984Z,101777.22
2019-03-28T00:30:00.042Z,101776.95
2019-03-28T00:32:31.305Z,101774.08
2019-03-28T00:35:02.550Z,101777.14
2019-03-28T00:37:33.716Z,101773.45
2019-03-28T00:40:05.267Z,101777.44
2019-03-28T00:42:36.573Z,101782.19
2019-03-28T00:45:08.703Z,101774.94
2019-03-28T00:47:39.888Z,101782.78
2019-03-28T00:50:11.781Z,101777.64
2019-03-28T00:52:43.037Z,101776.67
2019-03-28T00:55:14.620Z,101769.13
2019-03-28T00:57:45.841Z,101772.63
2019-03-28T01:00:17.928Z,101768.47
2019-03-28T01:02:49.139Z,101771.52
2019-03-28T01:05:20.275Z,101762.57
2019-03-28T01:07:51.616Z,101761.91
2019-03-28T01:10:22.862Z,101758.65
2019-03-28T01:12:54.078Z,101760.18
2019-03-28T01:15:25.289Z,101761.97
2019-03-28T01:17:56.518Z,101753.98
2019-03-28T01:20:28.012Z,101758.95
2019-03-28T01:22:59.190Z,101755.69
2019-03-28T01:25:30.314Z,101756.20
2019-03-28T01:28:01.457Z,101762.58
2019-03-28T01:30:33.044Z,101760.48
2019-03-28T01:33:04.283Z,101761.14
2019-03-28T01:35:35.586Z,101763.83
2019-03-28T01:38:06.776Z,101759.41
2019-03-28T01:40:38.340Z,101764.22
2019-03-28T01:43:09.468Z,101769.61
2019-03-28T01:45:40.678Z,101772.77
2019-03-28T01:48:13.096Z,101771.06
2019-03-28T01:50:44.330Z,101766.09
2019-03-28T01:53:15.635Z,101769.56
2019-03-28T01:55:46.927Z,101765.16
2019-03-28T01:58:18.172Z,101767.98
2019-03-28T02:00:49.315Z,101763.58
2019-03-28T02:03:20.561Z,101764.51
2019-03-28T02:05:51.671Z,101760.17
2019-03-28T02:08:24.853Z,101763.59
2019-03-28T02:10:55.886Z,101761.30
2019-03-28T02:13:27.296Z,101770.09
2019-03-28T02:15:58.552Z,101762.22
2019-03-28T02:18:30.302Z,101759.86
2019-03-28T02:21:01.490Z,101760.65
2019-03-28T02:23:32.784Z,101756.63
2019-03-28T02:26:03.959Z,101754.66
2019-03-28T02:28:35.276Z,101754.41
2019-03-28T02:31:06.399Z,101756.95
2019-03-28T02:33:37.652Z,101761.36
2019-03-28T02:36:08.932Z,101758.66
2019-03-28T02:38:40.151Z,101751.64
2019-03-28T02:41:11.378Z,101757.19
2019-03-28T02:43:42.844Z,101753.55
2019-03-28T02:46:14.095Z,101759.48
2019-03-28T02:48:45.350Z,101764.41
2019-03-28T02:51:16.597Z,101758.09
2019-03-28T02:53:48.191Z,101762.67
2019-03-28T02:56:19.437Z,101769.64
2019-03-28T02:58:51.027Z,101766.66
2019-03-28T03:01:22.260Z,101772.34
2019-03-28T03:03:53.481Z,101765.23
2019-03-28T03:06:24.651Z,101757.67
2019-03-28T03:08:56.002Z,101762.33
2019-03-28T03:11:27.237Z,101759.30
2019-03-28T03:13:58.369Z,101757.81
2019-03-28T03:16:30.049Z,101760.97
2019-03-28T03:19:01.533Z,101767.98
2019-03-28T03:21:32.758Z,101763.93
2019-03-28T03:24:04.029Z,101757.92
2019-03-28T03:26:35.622Z,101767.44
2019-03-28T03:29:10.115Z,101776.50
2019-03-28T03:31:41.326Z,101776.56
2019-03-28T03:34:12.630Z,101770.25
2019-03-28T03:36:43.965Z,101766.88
2019-03-28T03:39:15.314Z,101772.43
2019-03-28T03:41:46.603Z,101781.80
2019-03-28T03:44:17.759Z,101773.82
2019-03-28T03:46:49.041Z,101780.10
2019-03-28T03:49:21.726Z,101776.63
2019-03-28T03:51:52.886Z,101771.98
2019-03-28T03:54:23.980Z,101767.47
2019-03-28T03:56:55.465Z,101764.63
2019-03-28T03:59:27.052Z,101770.59
2019-03-28T04:01:58.349Z,101769.10
2019-03-28T04:04:29.546Z,101772.09
2019-03-28T04:07:01.394Z,101771.53
2019-03-28T04:09:32.548Z,101774.90
2019-03-28T04:12:03.833Z,101775.38
2019-03-28T04:14:35.375Z,101783.88
2019-03-28T04:17:07.174Z,101791.24
2019-03-28T04:19:38.396Z,101792.25
2019-03-28T04:22:10.080Z,101792.42
2019-03-28T04:24:41.658Z,101794.12
2019-03-28T04:27:12.924Z,101801.77
2019-03-28T04:29:44.048Z,101801.03
2019-03-28T04:32:15.242Z,101804.61
2019-03-28T04:34:46.365Z,101808.43
2019-03-28T04:37:17.442Z,101807.22
2019-03-28T04:39:48.604Z,101808.30
2019-03-28T04:42:19.753Z,101799.66
2019-03-28T04:44:51.107Z,101808.47
2019-03-28T04:47:22.332Z,101811.97
2019-03-28T04:49:53.523Z,101806.34
2019-03-28T04:52:24.800Z,101809.92
2019-03-28T04:54:56.033Z,101803.44
2019-03-28T04:57:27.269Z,101813.70
2019-03-28T04:59:58.539Z,101820.17
2019-03-28T05:02:29.781Z,101813.67
2019-03-28T05:05:01.073Z,101806.84
2019-03-28T05:07:32.203Z,101811.52
2019-03-28T05:10:03.551Z,101817.59
2019-03-28T05:12:34.801Z,101812.98
2019-03-28T05:15:07.393Z,101822.63
2019-03-28T05:17:38.592Z,101827.14
2019-03-28T05:20:13.059Z,101830.20
2019-03-28T05:22:43.056Z,101825.20
2019-03-28T05:25:14.540Z,101842.63
2019-03-28T05:27:45.748Z,101836.28
2019-03-28T05:30:17.573Z,101843.73
2019-03-28T05:32:48.993Z,101850.23
2019-03-28T05:35:20.579Z,101847.52
2019-03-28T05:37:51.835Z,101809.56
2019-03-28T05:40:23.092Z,101853.52
2019-03-28T05:42:54.451Z,101855.52
2019-03-28T05:45:25.746Z,101850.96
2019-03-28T05:48:00.090Z,101860.73
2019-03-28T05:50:30.229Z,101856.72
2019-03-28T05:53:01.425Z,101866.44
2019-03-28T05:55:32.635Z,101869.95
2019-03-28T05:58:04.212Z,101865.25
2019-03-28T06:00:38.794Z,101868.09
2019-03-28T06:03:08.731Z,101873.95
2019-03-28T06:05:40.554Z,101880.61
2019-03-28T06:08:11.702Z,101873.47
2019-03-28T06:10:42.828Z,101878.45
2019-03-28T06:13:14.110Z,101876.58
2019-03-28T06:15:45.483Z,101880.28
2019-03-28T06:18:16.670Z,101877.58
2019-03-28T06:20:48.014Z,101878.16
2019-03-28T06:23:19.299Z,101869.92
2019-03-28T06:25:50.649Z,101871.72
2019-03-28T06:28:21.999Z,101867.20
2019-03-28T06:30:56.048Z,101871.95
2019-03-28T06:33:27.257Z,101873.58
2019-03-28T06:35:58.525Z,101876.79
2019-03-28T06:38:29.832Z,101876.55
2019-03-28T06:41:01.458Z,101877.20
2019-03-28T06:43:33.564Z,101878.55
2019-03-28T06:46:04.840Z,101880.05
2019-03-28T06:48:36.034Z,101873.05
2019-03-28T06:51:07.484Z,101870.48
2019-03-28T06:53:38.685Z,101867.49
2019-03-28T06:56:09.906Z,101860.30
2019-03-28T06:58:42.879Z,101860.91
2019-03-28T07:01:14.524Z,101860.19
2019-03-28T07:03:47.486Z,101854.71
2019-03-28T07:06:18.857Z,101850.91
2019-03-28T07:08:50.125Z,101855.83
2019-03-28T07:11:21.763Z,101836.69
2019-03-28T07:13:53.145Z,101856.31
2019-03-28T07:16:25.664Z,101856.97
2019-03-28T07:18:56.856Z,101849.14
2019-03-28T07:21:28.050Z,101848.48
2019-03-28T07:23:59.815Z,101848.19
2019-03-28T07:26:31.146Z,101845.03
2019-03-28T07:29:02.934Z,101843.06
2019-03-28T07:31:35.567Z,101842.09
2019-03-28T07:34:07.090Z,101832.67
2019-03-28T07:36:39.383Z,101843.59
2019-03-28T07:39:11.242Z,101837.88
2019-03-28T07:41:42.805Z,101839.55
2019-03-28T07:44:14.876Z,101838.27
2019-03-28T07:46:47.741Z,101841.66
2019-03-28T07:49:20.034Z,101838.48
2019-03-28T07:51:51.294Z,101842.81
2019-03-28T07:54:24.344Z,101842.16
2019-03-28T07:56:55.581Z,101840.17
2019-03-28T07:59:26.815Z,101841.53
2019-03-28T08:01:58.070Z,101839.44
2019-03-28T08:04:29.302Z,101831.31
2019-03-28T08:07:00.556Z,101838.91
2019-03-28T08:09:36.738Z,101838.33
2019-03-28T08:12:05.057Z,101840.50
2019-03-28T08:14:36.362Z,101839.29
2019-03-28T08:17:08.536Z,101841.43
2019-03-28T08:19:41.554Z,101843.52
2019-03-28T08:22:12.605Z,101844.30
2019-03-28T08:24:43.777Z,101838.68
2019-03-28T08:27:15.043Z,101840.22
2019-03-28T08:29:46.240Z,101843.32
2019-03-28T08:32:20.554Z,101840.61
2019-03-28T08:34:51.957Z,101840.18
2019-03-28T08:37:23.270Z,101843.63
2019-03-28T08:39:55.700Z,101847.80
2019-03-28T08:42:27.227Z,101845.58
2019-03-28T08:44:58.419Z,101842.27
2019-03-28T08:47:29.961Z,101848.84
2019-03-28T08:50:01.225Z,101841.17
2019-03-28T08:52:32.485Z,101843.29
2019-03-28T08:55:04.204Z,101845.53
2019-03-28T08:57:35.502Z,101842.96
2019-03-28T09:00:09.383Z,101853.88
2019-03-28T09:02:39.271Z,101851.25
2019-03-28T09:05:11.062Z,101842.69
2019-03-28T09:07:42.529Z,101851.89
2019-03-28T09:10:13.942Z,101851.49
2019-03-28T09:12:45.168Z,101844.39
2019-03-28T09:15:16.689Z,101843.19
2019-03-28T09:17:47.907Z,101832.70
2019-03-28T09:20:19.375Z,101832.80
2019-03-28T09:22:51.942Z,101842.63
2019-03-28T09:25:23.157Z,101840.39
2019-03-28T09:27:54.469Z,101837.80
2019-03-28T09:30:48.086Z,101834.38
2019-03-28T09:33:10.943Z,101829.92
2019-03-28T09:35:42.180Z,101835.22
2019-03-28T09:38:13.756Z,101835.38
2019-03-28T09:40:44.966Z,101828.95
2019-03-28T09:43:16.177Z,101836.23
2019-03-28T09:45:47.473Z,101834.45
2019-03-28T09:48:18.780Z,101833.54
2019-03-28T09:50:50.004Z,101840.43
2019-03-28T09:53:21.332Z,101828.85
2019-03-28T09:55:52.605Z,101837.53
2019-03-28T09:58:23.773Z,101841.34
2019-03-28T10:01:02.917Z,101840.61
2019-03-28T10:03:29.692Z,101840.06
2019-03-28T10:06:00.888Z,101839.39
2019-03-28T10:08:32.160Z,101848.07
2019-03-28T10:11:03.418Z,101836.36
2019-03-28T10:13:34.611Z,101839.73
2019-03-28T10:16:06.084Z,101835.45
2019-03-28T10:18:37.291Z,101840.23
2019-03-28T10:21:08.669Z,101831.48
2019-03-28T10:23:40.074Z,101831.58
2019-03-28T10:26:11.186Z,101825.03
2019-03-28T10:28:42.413Z,101827.63
2019-03-28T10:31:16.608Z,101836.25
2019-03-28T10:33:47.223Z,101830.13
2019-03-28T10:36:18.765Z,101826.63
2019-03-28T10:38:50.013Z,101818.45
2019-03-28T10:41:21.497Z,101821.47
2019-03-28T10:43:52.737Z,101817.64
2019-03-28T10:46:23.984Z,101814.94
2019-03-28T10:48:55.121Z,101808.93
2019-03-28T10:51:26.367Z,101812.87
2019-03-28T10:53:57.819Z,101806.18
2019-03-28T10:56:29.005Z,101814.57
2019-03-28T10:59:00.286Z,101810.20
2019-03-28T11:01:47.611Z,101820.66
2019-03-28T11:04:04.559Z,101806.21
2019-03-28T11:06:35.674Z,101813.70
2019-03-28T11:09:08.812Z,101804.58
2019-03-28T11:11:39.987Z,101805.88
2019-03-28T11:14:11.486Z,101798.44
2019-03-28T11:16:42.728Z,101803.23
2019-03-28T11:19:15.723Z,101808.48
2019-03-28T11:21:47.021Z,101798.03
2019-03-28T11:24:18.205Z,101786.73
2019-03-28T11:26:49.754Z,101785.84
2019-03-28T11:29:21.009Z,101791.05
2019-03-28T11:31:52.744Z,101783.98
2019-03-28T11:34:24.040Z,101787.08
2019-03-28T11:36:56.010Z,101787.14
2019-03-28T11:39:27.539Z,101785.39
2019-03-28T11:42:00.517Z,101784.91
2019-03-28T11:44:31.802Z,101786.28
2019-03-28T11:47:03.128Z,101780.17
2019-03-28T11:49:34.388Z,101788.83
2019-03-28T11:52:05.724Z,101789.73
2019-03-28T11:54:36.936Z,101784.12
2019-03-28T11:57:08.222Z,101772.81
2019-03-28T11:59:39.757Z,101772.78
2019-03-28T12:02:19.751Z,101779.73
2019-03-28T12:04:43.968Z,101771.39
2019-03-28T12:07:15.209Z,101770.91
2019-03-28T12:09:46.456Z,101767.81
2019-03-28T12:12:17.638Z,101770.37
2019-03-28T12:14:48.936Z,101776.18
2019-03-28T12:17:20.492Z,101763.11
2019-03-28T12:19:51.752Z,101759.11
2019-03-28T12:22:22.902Z,101762.66
2019-03-28T12:24:54.140Z,101757.39
2019-03-28T12:27:25.441Z,101755.59
2019-03-28T12:29:56.565Z,101754.78
2019-03-28T12:32:27.787Z,101758.29
2019-03-28T12:34:58.978Z,101758.29
2019-03-28T12:37:30.080Z,101760.49
2019-03-28T12:40:01.311Z,101751.22
2019-03-28T12:42:32.568Z,101757.84
2019-03-28T12:45:03.895Z,101753.06
2019-03-28T12:47:42.193Z,101752.13
2019-03-28T12:50:10.853Z,101751.30
2019-03-28T12:52:41.993Z,101753.37
2019-03-28T12:55:13.440Z,101750.41
2019-03-28T12:57:44.670Z,101752.08
2019-03-28T13:00:16.187Z,101749.06
2019-03-28T13:02:47.295Z,101740.80
2019-03-28T13:05:18.642Z,101736.81
2019-03-28T13:07:49.895Z,101742.20
2019-03-28T13:10:21.149Z,101736.49
2019-03-28T13:12:52.393Z,101735.39
2019-03-28T13:15:23.802Z,101740.43
2019-03-28T13:17:55.113Z,101733.34
2019-03-28T13:20:27.758Z,101741.02
2019-03-28T13:22:58.930Z,101738.39
2019-03-28T13:25:30.478Z,101734.72
2019-03-28T13:28:02.713Z,101731.38
2019-03-28T13:30:34.970Z,101728.26
2019-03-28T13:33:06.725Z,101733.15
2019-03-28T13:35:37.934Z,101726.34
2019-03-28T13:38:09.148Z,101722.77
2019-03-28T13:40:40.380Z,101736.88
2019-03-28T13:43:11.503Z,101726.77
2019-03-28T13:45:43.413Z,101719.45
2019-03-28T13:48:14.645Z,101718.77
2019-03-28T13:50:46.177Z,101713.30
2019-03-28T13:53:17.263Z,101722.94
2019-03-28T13:55:48.429Z,101721.78
2019-03-28T13:58:20.459Z,101722.41
2019-03-28T14:00:54.419Z,101718.47
2019-03-28T14:03:24.894Z,101715.92
2019-03-28T14:05:56.065Z,101713.46
2019-03-28T14:08:28.732Z,101712.23
2019-03-28T14:10:59.912Z,101708.42
2019-03-28T14:13:31.765Z,101713.31
2019-03-28T14:16:02.950Z,101704.54
2019-03-28T14:18:34.228Z,101704.67
2019-03-28T14:21:05.467Z,101695.82
2019-03-28T14:23:36.676Z,101702.39
2019-03-28T14:26:07.905Z,101702.14
2019-03-28T14:28:39.374Z,101702.20
2019-03-28T14:31:10.834Z,101703.08
2019-03-28T14:33:42.163Z,101696.02
2019-03-28T14:36:14.050Z,101688.14
2019-03-28T14:38:45.636Z,101692.36
2019-03-28T14:41:16.909Z,101686.30
2019-03-28T14:43:48.112Z,101681.80
2019-03-28T14:46:19.316Z,101688.05
2019-03-28T14:48:50.675Z,101681.78
2019-03-28T14:51:21.925Z,101679.46
2019-03-28T14:53:53.338Z,101684.67
2019-03-28T14:56:25.001Z,101687.10
2019-03-28T14:58:59.011Z,101685.38
2019-03-28T15:01:30.664Z,101687.10
2019-03-28T15:04:02.172Z,101679.74
2019-03-28T15:06:33.492Z,101681.41
2019-03-28T15:09:05.972Z,101681.81
2019-03-28T15:11:37.241Z,101678.88
2019-03-28T15:14:08.407Z,101675.75
2019-03-28T15:16:39.898Z,101670.59
2019-03-28T15:19:11.521Z,101671.13
2019-03-28T15:21:42.718Z,101674.23
2019-03-28T15:24:13.876Z,101668.50
2019-03-28T15:26:45.195Z,101667.89
2019-03-28T15:29:16.803Z,101666.67
2019-03-28T15:31:48.400Z,101668.95
2019-03-28T15:34:19.608Z,101665.04
2019-03-28T15:36:51.148Z,101668.52
2019-03-28T15:39:22.467Z,101668.05
2019-03-28T15:41:54.149Z,101682.51
2019-03-28T15:44:25.318Z,101669.44
2019-03-28T15:46:56.490Z,101670.21
2019-03-28T15:49:27.930Z,101669.45
2019-03-28T15:51:59.475Z,101668.59
2019-03-28T15:54:30.663Z,101665.97
2019-03-28T15:57:01.944Z,101667.68
2019-03-28T15:59:33.112Z,101667.75
2019-03-28T16:02:04.664Z,101670.34
2019-03-28T16:04:36.225Z,101667.29
2019-03-28T16:07:07.815Z,101669.91
2019-03-28T16:09:39.214Z,101672.11
2019-03-28T16:12:10.508Z,101666.36
2019-03-28T16:14:42.213Z,101671.67
2019-03-28T16:17:13.557Z,101664.28
2019-03-28T16:19:45.213Z,101656.88
2019-03-28T16:22:16.519Z,101663.87
2019-03-28T16:24:47.778Z,101663.90
2019-03-28T16:27:19.569Z,101660.80
2019-03-28T16:29:54.218Z,101659.14
2019-03-28T16:32:24.184Z,101659.97
2019-03-28T16:34:55.403Z,101661.30
2019-03-28T16:37:27.702Z,101669.60
2019-03-28T16:39:59.213Z,101664.89
2019-03-28T16:42:30.415Z,101668.80
2019-03-28T16:45:01.591Z,101668.41
2019-03-28T16:47:33.341Z,101674.05
2019-03-28T16:50:08.206Z,101670.16
2019-03-28T16:52:39.471Z,101667.09
2019-03-28T16:55:10.673Z,101672.77
2019-03-28T16:57:42.618Z,101680.61
2019-03-28T17:00:15.013Z,101671.45
2019-03-28T17:02:46.728Z,101668.43
2019-03-28T17:05:17.992Z,101667.58
2019-03-28T17:07:51.634Z,101668.04
2019-03-28T17:10:46.800Z,101671.97
2019-03-28T17:13:18.745Z,101675.02
2019-03-28T17:15:51.030Z,101672.43
2019-03-28T17:18:22.729Z,101673.31
2019-03-28T17:20:53.942Z,101675.08
2019-03-28T17:23:25.245Z,101677.25
2019-03-28T17:25:56.813Z,101676.39
2019-03-28T17:28:28.027Z,101678.19
2019-03-28T17:30:59.390Z,101675.98
2019-03-28T17:33:31.909Z,101674.69
2019-03-28T17:36:03.514Z,101676.89
2019-03-28T17:38:34.659Z,101670.80
2019-03-28T17:41:06.626Z,101679.95
2019-03-28T17:43:38.076Z,101684.32
2019-03-28T17:46:12.175Z,101683.91
2019-03-28T17:48:42.312Z,101681.70
2019-03-28T17:51:13.849Z,101688.28
2019-03-28T17:53:45.692Z,101689.58
2019-03-28T17:56:17.327Z,101686.97
2019-03-28T17:58:48.578Z,101688.69
2019-03-28T18:01:20.420Z,101697.42
2019-03-28T18:03:51.751Z,101688.72
2019-03-28T18:06:23.025Z,101698.31
2019-03-28T18:08:55.340Z,101695.70
2019-03-28T18:11:26.967Z,101695.70
2019-03-28T18:13:58.581Z,101703.56
2019-03-28T18:16:29.822Z,101697.48
2019-03-28T18:19:01.319Z,101701.40
2019-03-28T18:21:32.904Z,101701.84
2019-03-28T18:24:04.642Z,101710.56
2019-03-28T18:26:35.934Z,101708.39
2019-03-28T18:29:07.272Z,101714.06
2019-03-28T18:31:49.654Z,101717.98
2019-03-28T18:34:12.672Z,101728.86
2019-03-28T18:36:47.145Z,101732.78
2019-03-28T18:39:17.172Z,101728.42
2019-03-28T18:41:48.445Z,101732.34
2019-03-28T18:44:19.680Z,101730.58
2019-03-28T18:46:51.775Z,101728.86
2019-03-28T18:49:23.375Z,101734.97
2019-03-28T18:51:54.610Z,101739.31
2019-03-28T18:54:25.902Z,101746.73
2019-03-28T18:56:57.273Z,101744.11
2019-03-28T18:59:28.717Z,101754.11
2019-03-28T19:01:59.852Z,101762.36
2019-03-28T19:04:31.129Z,101756.73
2019-03-28T19:07:02.299Z,101751.08
2019-03-28T19:09:33.637Z,101752.35
2019-03-28T19:12:04.710Z,101748.00
2019-03-28T19:14:35.960Z,101751.05
2019-03-28T19:17:07.842Z,101750.61
2019-03-28T19:19:39.894Z,101751.48
2019-03-28T19:22:11.150Z,101758.00
2019-03-28T19:24:42.795Z,101756.72
2019-03-28T19:27:14.494Z,101750.59
2019-03-28T19:29:46.036Z,101750.13
2019-03-28T19:32:17.251Z,101758.41
2019-03-28T19:34:48.570Z,101749.70
2019-03-28T19:37:22.722Z,101742.29
2019-03-28T19:39:52.818Z,101739.25
2019-03-28T19:42:24.123Z,101734.48
2019-03-28T19:44:55.738Z,101743.58
2019-03-28T19:47:28.556Z,101741.84
2019-03-28T19:49:59.975Z,101745.77
2019-03-28T19:52:31.348Z,101740.55
2019-03-28T19:55:02.810Z,101737.03
2019-03-28T19:57:33.947Z,101739.63
2019-03-28T20:00:05.674Z,101731.81
2019-03-28T20:02:37.519Z,101732.22
2019-03-28T20:05:09.311Z,101726.56
2019-03-28T20:07:40.638Z,101727.41
2019-03-28T20:10:16.635Z,101723.06
2019-03-28T20:12:44.797Z,101722.63
2019-03-28T20:15:15.975Z,101724.36
2019-03-28T20:17:48.063Z,101729.13
2019-03-28T20:20:19.481Z,101723.05
2019-03-28T20:22:50.640Z,101723.89
2019-03-28T20:25:21.902Z,101733.46
2019-03-28T20:27:53.112Z,101729.97
2019-03-28T20:30:24.919Z,101739.98
2019-03-28T20:32:56.208Z,101739.58
2019-03-28T20:35:27.340Z,101736.92
2019-03-28T20:37:58.586Z,101736.91
2019-03-28T20:40:29.934Z,101743.41
2019-03-28T20:43:01.240Z,101749.02
2019-03-28T20:45:32.615Z,101752.94
2019-03-28T20:48:03.955Z,101749.01
2019-03-28T20:50:35.249Z,101755.95
2019-03-28T20:53:06.460Z,101746.41
2019-03-28T20:55:38.093Z,101752.90
2019-03-28T20:58:09.851Z,101750.23
2019-03-28T21:00:46.794Z,101756.75
2019-03-28T21:03:18.633Z,101754.99
2019-03-28T21:05:49.958Z,101754.50
2019-03-28T21:08:21.100Z,101761.41
2019-03-28T21:10:52.741Z,101752.25
2019-03-28T21:13:23.984Z,101753.10
2019-03-28T21:15:55.210Z,101756.99
2019-03-28T21:18:26.912Z,101751.31
2019-03-28T21:20:58.235Z,101753.91
2019-03-28T21:23:29.441Z,101743.44
2019-03-28T21:26:01.189Z,101748.63
2019-03-28T21:28:32.367Z,101739.42
2019-03-28T21:31:03.865Z,101742.85
2019-03-28T21:33:36.191Z,101735.80
2019-03-28T21:36:07.470Z,101743.55
2019-03-28T21:38:38.679Z,101738.73
2019-03-28T21:41:09.931Z,101736.02
2019-03-28T21:43:42.813Z,101728.62
2019-03-28T21:46:15.195Z,101732.08
2019-03-28T21:48:46.485Z,101728.03
2019-03-28T21:51:20.052Z,101728.83
2019-03-28T21:53:50.628Z,101729.66
2019-03-28T21:56:22.657Z,101732.19
2019-03-28T21:58:55.326Z,101726.94
2019-03-28T22:01:26.635Z,101723.38
2019-03-28T22:03:58.497Z,101723.34
2019-03-28T22:06:42.316Z,101722.41
2019-03-28T22:09:04.353Z,101719.80
2019-03-28T22:11:36.513Z,101722.28
2019-03-28T22:14:07.734Z,101724.39
2019-03-28T22:16:39.587Z,101717.41
2019-03-28T22:19:10.723Z,101718.23
2019-03-28T22:21:42.779Z,101721.26
2019-03-28T22:24:14.085Z,101714.27
2019-03-28T22:26:46.361Z,101725.42
2019-03-28T22:29:17.815Z,101728.34
2019-03-28T22:31:49.160Z,101734.02
2019-03-28T22:34:20.534Z,101730.81
2019-03-28T22:36:57.433Z,101729.89
2019-03-28T22:39:24.792Z,101726.23
2019-03-28T22:41:56.029Z,101723.67
2019-03-28T22:44:27.405Z,101725.00
2019-03-28T22:46:58.639Z,101730.53
2019-03-28T22:49:30.095Z,101725.89
2019-03-28T22:52:01.733Z,101728.55
2019-03-28T22:54:33.017Z,101726.21
2019-03-28T22:57:04.288Z,101734.72
2019-03-28T22:59:35.557Z,101729.56
2019-03-28T23:02:06.963Z,101731.20
2019-03-28T23:04:39.347Z,101727.80
2019-03-28T23:07:11.811Z,101733.83
2019-03-28T23:09:43.204Z,101732.98
2019-03-28T23:12:15.659Z,101730.67
2019-03-28T23:14:46.914Z,101737.06
2019-03-28T23:17:18.120Z,101740.55
2019-03-28T23:19:49.367Z,101733.73
2019-03-28T23:22:20.868Z,101733.73
2019-03-28T23:24:52.133Z,101737.56
2019-03-28T23:27:23.432Z,101738.73
2019-03-28T23:29:55.054Z,101738.67
2019-03-28T23:32:26.281Z,101745.49
2019-03-28T23:34:57.806Z,101742.06
2019-03-28T23:37:29.316Z,101745.06
2019-03-28T23:40:00.780Z,101745.92
2019-03-28T23:42:32.019Z,101745.00
2019-03-28T23:45:03.257Z,101746.56
2019-03-28T23:47:34.473Z,101743.51
2019-03-28T23:50:06.975Z,101742.08
2019-03-28T23:52:38.306Z,101744.97
2019-03-28T23:55:09.931Z,101735.47
2019-03-28T23:57:41.516Z,101746.23
